Rechercher aéroport 
image banner adimage banner adimage banner ad
image banner ad

3CL1 - Metropolitan Water District

Situé à Los Angeles, United States

ICAO - 3CL1, IATA -

Données fournies par Airmate  

Information générale

Coordonnées: N34°3'17" W118°14'10"
Élévation : 465 feet MSL.
Variation magnétique : 14° East
Voir autres Aéroports à California

Données opérationnelles

Special qualification required
Heure actuelle UTC:
Heure actuelle locale:
METAR: KHHR 292353Z 26012KT 10SM CLR 23/16 A2986 RMK AO2 SLP111 T02330161 10250 20211 58013
Voir NOTAMs / SUP AIP / TFR affectant cet aéroport [VIEW]
Fréquences de communication: [VIEW]

Pistes:

Coordonnées de l'aéroport

Adresse: Los Angeles United States

Vue satellite de 3CL1